Time;durP1;ratioP1;P1;durP2;ratioP2;P2;SDS_P1;SDS_P2;PMS_P1;PMS_P2;Temp;Humidity;BMP_temperature;BMP_pressure;BME280_temperature;BME280_humidity;BME280_pressure;Samples;Min_cycle;Max_cycle;Signal;HPM_P1;HPM_P2
2021/06/20 00:00:20;;;;;;;12.55;4.78;;;;;;;22.84;55.35;99993.84;127460;1093;22735;-82
2021/06/20 00:03:12;;;;;;;11.75;5.13;;;;;;;22.78;55.68;99985.48;127281;1093;26264;-82
2021/06/20 00:05:51;;;;;;;11.48;4.63;;;;;;;22.70;56.07;99992.53;127360;1092;25767;-82
2021/06/20 00:08:23;;;;;;;11.15;4.95;;;;;;;22.62;55.95;99992.52;127319;1093;22786;-82
2021/06/20 00:10:55;;;;;;;12.18;4.50;;;;;;;22.60;55.96;99998.02;127309;1093;27303;-82
2021/06/20 00:13:28;;;;;;;12.85;5.23;;;;;;;22.57;56.28;99998.38;127354;1092;22946;-82
2021/06/20 00:15:59;;;;;;;12.75;5.40;;;;;;;22.51;56.43;99990.03;127406;1093;22764;-82
2021/06/20 00:18:31;;;;;;;11.05;4.70;;;;;;;22.44;56.78;99994.39;127424;1093;22775;-82
2021/06/20 00:21:02;;;;;;;14.88;5.50;;;;;;;22.34;57.03;99999.13;127283;1092;22750;-82
2021/06/20 00:23:33;;;;;;;11.20;4.65;;;;;;;22.27;56.77;99999.86;127186;1093;22860;-83
2021/06/20 00:26:05;;;;;;;13.95;5.35;;;;;;;22.21;57.02;99998.52;127331;1092;22787;-82
2021/06/20 00:28:36;;;;;;;14.30;5.67;;;;;;;22.14;57.08;99991.48;126967;1093;23604;-82
2021/06/20 00:31:10;;;;;;;10.30;4.58;;;;;;;22.08;57.76;99990.91;127497;1093;22765;-81
2021/06/20 00:33:42;;;;;;;9.85;5.05;;;;;;;22.03;57.52;99988.25;127302;1092;22858;-82
2021/06/20 00:36:14;;;;;;;10.53;4.98;;;;;;;22.00;57.59;99986.52;127324;1093;22923;-82
2021/06/20 00:38:47;;;;;;;13.33;5.70;;;;;;;21.93;57.70;99985.20;127193;1092;23202;-82
2021/06/20 00:41:21;;;;;;;14.20;5.60;;;;;;;21.85;58.15;99980.81;127376;1093;26229;-82
2021/06/20 00:43:52;;;;;;;11.53;5.45;;;;;;;21.75;58.13;99983.39;127384;1093;22770;-82
2021/06/20 00:46:23;;;;;;;11.60;4.98;;;;;;;21.66;58.52;99984.68;127320;1093;22781;-82
2021/06/20 00:48:55;;;;;;;13.38;5.55;;;;;;;21.57;58.70;99979.55;127214;1092;22787;-83
2021/06/20 00:51:27;;;;;;;13.73;5.55;;;;;;;21.52;58.74;99982.53;127254;1092;22848;-81
2021/06/20 00:53:59;;;;;;;12.73;5.80;;;;;;;21.46;58.99;99970.58;127219;1092;22787;-82
2021/06/20 00:56:33;;;;;;;13.33;5.73;;;;;;;21.42;58.84;99985.16;127352;1091;22743;-82
2021/06/20 00:59:05;;;;;;;12.63;6.48;;;;;;;21.40;59.07;99973.59;127301;1092;22790;-81
2021/06/20 01:01:38;;;;;;;12.20;5.70;;;;;;;21.36;59.23;99978.88;127291;1092;25752;-81
2021/06/20 01:04:11;;;;;;;15.90;6.43;;;;;;;21.30;59.28;99972.61;127331;1092;22759;-82
2021/06/20 01:06:42;;;;;;;13.33;6.28;;;;;;;21.26;59.19;99968.60;127301;1093;26231;-82
2021/06/20 01:09:13;;;;;;;11.73;5.80;;;;;;;21.24;59.18;99974.08;127223;1093;28469;-82
2021/06/20 01:11:45;;;;;;;12.73;5.95;;;;;;;21.20;59.53;99963.09;127223;1092;27188;-82
2021/06/20 01:14:18;;;;;;;10.98;5.73;;;;;;;21.17;59.83;99963.45;127242;1092;22869;-82
2021/06/20 01:16:50;;;;;;;13.70;6.05;;;;;;;21.13;59.97;99957.35;127232;1093;22869;-84
2021/06/20 01:19:22;;;;;;;13.25;5.85;;;;;;;21.12;59.86;99953.02;127173;1092;23568;-82
2021/06/20 01:21:54;;;;;;;13.05;6.25;;;;;;;21.07;59.94;99954.68;127296;1093;23065;-81
2021/06/20 01:24:27;;;;;;;12.55;5.93;;;;;;;21.04;60.12;99938.78;127194;1092;22784;-82
2021/06/20 01:26:58;;;;;;;12.80;6.28;;;;;;;21.04;60.25;99950.14;127111;1093;22780;-81
2021/06/20 01:29:33;;;;;;;14.68;6.20;;;;;;;21.02;60.49;99947.10;127202;1092;22872;-82
2021/06/20 01:32:05;;;;;;;15.45;6.05;;;;;;;20.98;60.53;99943.06;127270;1093;26235;-81
2021/06/20 01:34:36;;;;;;;11.38;5.65;;;;;;;20.91;60.63;99942.47;127207;1092;22801;-81
2021/06/20 01:37:10;;;;;;;14.40;6.03;;;;;;;20.87;60.80;99933.55;127251;1092;23746;-82
2021/06/20 01:39:41;;;;;;;11.75;6.18;;;;;;;20.87;60.68;99944.13;127376;1093;22770;-81
2021/06/20 01:42:16;;;;;;;12.70;5.93;;;;;;;20.84;61.02;99948.07;127301;1092;22848;-81
2021/06/20 01:44:49;;;;;;;10.70;5.73;;;;;;;20.76;61.08;99936.69;127403;1092;26244;-81
2021/06/20 01:47:23;;;;;;;13.33;5.83;;;;;;;20.68;61.33;99935.88;127297;1092;22812;-81
2021/06/20 01:49:59;;;;;;;11.30;6.03;;;;;;;20.63;61.58;99938.87;127246;1093;22787;-81
2021/06/20 01:52:31;;;;;;;11.95;5.83;;;;;;;20.60;61.53;99928.63;127329;1092;22861;-82
2021/06/20 01:55:03;;;;;;;13.80;6.73;;;;;;;20.57;61.74;99926.88;127235;1092;22770;-82
2021/06/20 01:57:38;;;;;;;14.43;6.47;;;;;;;20.52;61.75;99922.91;127180;1092;22794;-81
2021/06/20 02:00:17;;;;;;;10.95;5.80;;;;;;;20.47;61.78;99925.87;127338;1092;22855;-81
2021/06/20 02:02:48;;;;;;;15.30;6.07;;;;;;;20.41;62.23;99928.86;127094;1092;24329;-82
2021/06/20 02:05:24;;;;;;;13.53;6.25;;;;;;;20.38;62.22;99926.38;127356;1093;23407;-81
2021/06/20 02:07:55;;;;;;;12.00;5.85;;;;;;;20.37;62.01;99934.12;127177;1093;23204;-81
2021/06/20 02:10:27;;;;;;;12.58;6.10;;;;;;;20.39;62.17;99922.22;127385;1093;22844;-81
2021/06/20 02:12:58;;;;;;;12.53;6.67;;;;;;;20.36;62.22;99918.41;127094;1093;27132;-81
2021/06/20 02:15:30;;;;;;;12.65;6.70;;;;;;;20.35;62.33;99913.30;126832;1093;27188;-82
2021/06/20 02:18:02;;;;;;;13.30;6.63;;;;;;;20.31;62.62;99919.33;126719;1092;22791;-81
2021/06/20 02:20:33;;;;;;;12.88;6.75;;;;;;;20.27;62.76;99918.92;126886;1092;22781;-81
2021/06/20 02:23:05;;;;;;;14.78;7.15;;;;;;;20.22;62.63;99922.64;127207;1093;25813;-82
2021/06/20 02:25:37;;;;;;;12.48;6.40;;;;;;;20.18;62.65;99922.20;127545;1093;24482;-82
2021/06/20 02:28:10;;;;;;;15.50;6.10;;;;;;;20.13;63.03;99906.85;127404;1093;27112;-81
2021/06/20 02:30:41;;;;;;;16.28;6.53;;;;;;;20.12;62.99;99913.08;127321;1092;22802;-82
2021/06/20 02:33:14;;;;;;;13.63;6.20;;;;;;;20.12;62.86;99907.41;127297;1093;22775;-82
2021/06/20 02:35:46;;;;;;;11.53;5.88;;;;;;;20.12;62.99;99902.51;127257;1092;26922;-82
2021/06/20 02:38:21;;;;;;;12.30;6.83;;;;;;;20.15;63.39;99915.56;127118;1092;27124;-80
2021/06/20 02:40:53;;;;;;;12.63;6.73;;;;;;;20.18;63.00;99922.97;127297;1093;22801;-81
2021/06/20 02:43:24;;;;;;;14.50;7.58;;;;;;;20.18;63.45;99922.97;126886;1093;22760;-81
2021/06/20 02:45:55;;;;;;;15.00;7.55;;;;;;;20.11;63.48;99911.58;127167;1092;22784;-81
2021/06/20 02:48:27;;;;;;;13.05;6.78;;;;;;;20.05;63.85;99913.76;127226;1093;23350;-81
2021/06/20 02:50:58;;;;;;;15.05;7.03;;;;;;;19.99;63.37;99910.30;127299;1093;22830;-81
2021/06/20 02:53:30;;;;;;;14.88;8.08;;;;;;;19.95;63.82;99910.66;127207;1092;23411;-82
2021/06/20 02:56:01;;;;;;;13.20;7.13;;;;;;;19.89;63.92;99912.09;127192;1092;22807;-81
2021/06/20 02:58:34;;;;;;;17.58;7.75;;;;;;;19.83;64.17;99908.64;127308;1093;22754;-78
2021/06/20 03:01:05;;;;;;;21.00;7.73;;;;;;;19.78;64.72;99904.63;126767;1093;22751;-83
2021/06/20 03:03:36;;;;;;;14.30;7.73;;;;;;;19.74;64.37;99895.70;126804;1093;22795;-81
2021/06/20 03:06:09;;;;;;;15.18;7.50;;;;;;;19.70;64.91;99889.63;126783;1093;22824;-81
2021/06/20 03:08:40;;;;;;;14.70;7.13;;;;;;;19.65;65.07;99893.37;127496;1093;22861;-80
2021/06/20 03:11:13;;;;;;;13.85;6.60;;;;;;;19.65;64.70;99889.77;126711;1091;22808;-81
2021/06/20 03:13:44;;;;;;;16.23;6.98;;;;;;;19.65;64.86;99889.77;126711;1092;22790;-80
2021/06/20 03:16:17;;;;;;;14.18;7.20;;;;;;;19.68;64.67;99892.25;126750;1092;22816;-80
2021/06/20 03:18:49;;;;;;;14.27;7.57;;;;;;;19.68;64.60;99886.59;126761;1093;23753;-82
2021/06/20 03:21:21;;;;;;;19.63;7.65;;;;;;;19.68;65.28;99880.92;126756;1093;23002;-82
2021/06/20 03:23:53;;;;;;;15.45;7.18;;;;;;;19.70;65.32;99881.13;126888;1093;22780;-80
2021/06/20 03:26:24;;;;;;;14.80;7.50;;;;;;;19.71;65.17;99874.17;126781;1092;27196;-81
2021/06/20 03:28:56;;;;;;;15.00;8.13;;;;;;;19.72;65.25;99875.67;126699;1092;22790;-81
2021/06/20 03:31:27;;;;;;;12.83;7.03;;;;;;;19.74;65.37;99870.22;126729;1092;22767;-81
2021/06/20 03:34:00;;;;;;;15.97;8.17;;;;;;;19.76;65.51;99869.69;126660;1091;22778;-80
2021/06/20 03:36:32;;;;;;;16.67;7.83;;;;;;;19.78;65.38;99859.30;126740;1093;27118;-80
2021/06/20 03:39:04;;;;;;;18.15;8.58;;;;;;;19.81;65.76;99860.28;126767;1092;22832;-81
2021/06/20 03:41:36;;;;;;;15.03;8.20;;;;;;;19.82;66.00;99854.05;126755;1093;24590;-81
2021/06/20 03:44:09;;;;;;;17.27;8.07;;;;;;;19.83;65.76;99861.25;126778;1093;22758;-80
2021/06/20 03:46:40;;;;;;;18.00;8.37;;;;;;;19.84;66.48;99867.69;126699;1092;22814;-81
2021/06/20 03:49:12;;;;;;;21.25;8.45;;;;;;;19.85;66.47;99874.86;126683;1092;22777;-80
2021/06/20 03:51:47;;;;;;;15.65;7.88;;;;;;;19.87;66.39;99880.73;126769;1092;22855;-80
2021/06/20 03:54:18;;;;;;;18.05;7.70;;;;;;;19.89;66.45;99883.77;126829;1093;22765;-80
2021/06/20 03:56:50;;;;;;;14.73;6.90;;;;;;;19.92;65.99;99880.61;126790;1093;22821;-81
2021/06/20 03:59:25;;;;;;;14.83;8.03;;;;;;;19.98;66.55;99889.73;126713;1092;23899;-80
2021/06/20 04:01:57;;;;;;;16.07;7.73;;;;;;;20.05;66.08;99893.92;127196;1092;104753;-59
2021/06/20 04:04:28;;;;;;;14.50;7.13;;;;;;;20.12;66.18;99891.17;126017;1093;25475;-60
2021/06/20 04:07:00;;;;;;;15.60;8.10;;;;;;;20.20;66.43;99893.33;125958;1093;22767;-59
2021/06/20 04:09:31;;;;;;;16.67;7.40;;;;;;;20.27;66.43;99889.80;125963;1093;22748;-59
2021/06/20 04:12:03;;;;;;;13.25;7.00;;;;;;;20.34;66.46;99889.85;125999;1093;22962;-58
2021/06/20 04:14:35;;;;;;;12.78;6.95;;;;;;;20.42;66.52;99895.60;126047;1093;22748;-59
2021/06/20 04:17:07;;;;;;;12.73;6.40;;;;;;;20.49;66.46;99906.98;125963;1093;22752;-59
2021/06/20 04:19:39;;;;;;;15.43;8.58;;;;;;;20.57;66.90;99912.70;126071;1093;22732;-57
2021/06/20 04:22:10;;;;;;;14.98;6.85;;;;;;;20.66;66.84;99920.72;126172;1093;22754;-59
2021/06/20 04:24:42;;;;;;;13.15;7.20;;;;;;;20.74;66.61;99927.20;125942;1092;22753;-59
2021/06/20 04:27:13;;;;;;;15.55;8.03;;;;;;;20.83;66.86;99933.15;125944;1093;22774;-60
2021/06/20 04:29:46;;;;;;;16.03;7.63;;;;;;;20.94;66.93;99935.66;126005;1093;22848;-60
2021/06/20 04:32:17;;;;;;;13.58;7.35;;;;;;;21.06;66.99;99927.63;126058;1092;22857;-59
2021/06/20 04:34:49;;;;;;;13.25;8.08;;;;;;;21.23;66.73;99941.34;125960;1093;22752;-58
2021/06/20 04:37:21;;;;;;;18.43;7.93;;;;;;;21.35;66.85;99931.17;126020;1093;22786;-61
2021/06/20 04:39:53;;;;;;;17.57;7.67;;;;;;;21.42;66.57;99945.39;125947;1092;27635;-57
2021/06/20 04:42:32;;;;;;;14.80;7.35;;;;;;;21.49;66.63;99947.52;125994;1093;26024;-57
2021/06/20 04:45:04;;;;;;;14.95;7.08;;;;;;;21.56;66.42;99949.61;125972;1093;27282;-59
2021/06/20 04:47:37;;;;;;;19.80;7.80;;;;;;;21.64;66.37;99953.23;126064;1093;22778;-58
2021/06/20 04:50:11;;;;;;;16.20;7.20;;;;;;;21.74;66.25;99947.79;125934;1093;22770;-57
2021/06/20 04:52:45;;;;;;;14.73;7.38;;;;;;;21.87;65.95;99938.38;126058;1093;24448;-59
2021/06/20 04:55:22;;;;;;;14.25;6.80;;;;;;;22.06;65.77;99938.78;125950;1093;22845;-60
2021/06/20 04:57:55;;;;;;;17.60;8.43;;;;;;;22.17;65.72;99930.66;125977;1093;26880;-59
2021/06/20 05:00:30;;;;;;;16.60;7.03;;;;;;;22.27;65.43;99937.30;125805;1093;22776;-58
2021/06/20 05:03:04;;;;;;;13.73;7.20;;;;;;;22.38;65.36;99939.78;125892;1093;22755;-58
2021/06/20 05:05:45;;;;;;;14.53;6.33;;;;;;;22.51;65.23;99941.67;126170;1093;22751;-60
2021/06/20 05:08:20;;;;;;;14.30;6.97;;;;;;;22.63;64.97;99930.69;126148;1092;22848;-64
2021/06/20 05:10:54;;;;;;;12.93;7.50;;;;;;;22.76;64.66;99936.18;126158;1092;22751;-59
2021/06/20 05:13:26;;;;;;;15.55;7.33;;;;;;;22.86;64.71;99939.95;126053;1093;22779;-58
2021/06/20 05:15:58;;;;;;;14.85;7.13;;;;;;;22.93;64.30;99959.09;126024;1092;24411;-62
2021/06/20 05:18:29;;;;;;;15.60;7.25;;;;;;;22.99;64.22;99959.65;125967;1093;22781;-59
2021/06/20 05:21:01;;;;;;;12.75;6.90;;;;;;;23.08;64.30;99956.22;125909;1093;22786;-58
2021/06/20 05:23:33;;;;;;;15.28;7.40;;;;;;;23.23;64.15;99951.26;126039;1093;22777;-58
2021/06/20 05:26:05;;;;;;;15.95;7.68;;;;;;;23.36;64.03;99949.53;125931;1093;22781;-58
2021/06/20 05:28:36;;;;;;;13.40;6.85;;;;;;;23.49;63.77;99947.19;126137;1093;22834;-59
2021/06/20 05:31:08;;;;;;;15.45;6.60;;;;;;;23.60;63.77;99934.60;125934;1092;22782;-59
2021/06/20 05:33:42;;;;;;;14.67;7.10;;;;;;;23.73;63.80;99942.91;125858;1093;22854;-59
2021/06/20 05:36:14;;;;;;;17.18;7.23;;;;;;;23.87;63.40;99944.16;125859;1093;22754;-59
2021/06/20 05:38:46;;;;;;;20.10;7.03;;;;;;;23.96;63.06;99941.42;125848;1093;24587;-59
2021/06/20 05:41:18;;;;;;;13.30;7.00;;;;;;;24.08;62.83;99951.06;125947;1093;25855;-59
2021/06/20 05:43:50;;;;;;;13.00;6.70;;;;;;;24.20;62.61;99956.32;125854;1093;25644;-58
2021/06/20 05:46:23;;;;;;;12.23;5.93;;;;;;;24.31;62.08;99948.08;125799;1093;22778;-59
2021/06/20 05:48:54;;;;;;;13.98;6.78;;;;;;;24.41;62.25;99948.18;125948;1093;22770;-60
2021/06/20 05:51:26;;;;;;;14.53;5.93;;;;;;;24.54;62.03;99948.63;125817;1092;22756;-60
2021/06/20 05:53:57;;;;;;;16.15;6.58;;;;;;;24.70;61.89;99935.00;125772;1093;23247;-59
2021/06/20 05:56:36;;;;;;;15.70;5.90;;;;;;;24.83;61.47;99940.40;125789;1093;22807;-59
2021/06/20 05:59:08;;;;;;;12.10;5.73;;;;;;;24.95;60.89;99952.10;125729;1093;22774;-58
2021/06/20 06:01:39;;;;;;;10.78;5.40;;;;;;;25.04;60.36;99957.16;125845;1093;27160;-59
2021/06/20 06:04:12;;;;;;;16.48;6.05;;;;;;;25.08;60.19;99955.38;125781;1093;22778;-60
2021/06/20 06:06:44;;;;;;;14.45;6.20;;;;;;;25.16;60.09;99952.45;125916;1093;22803;-59
2021/06/20 06:09:15;;;;;;;11.97;4.60;;;;;;;25.26;59.84;99953.29;125745;1093;22756;-60
2021/06/20 06:11:47;;;;;;;14.68;6.33;;;;;;;25.37;59.73;99947.05;125837;1093;22747;-60
2021/06/20 06:14:19;;;;;;;13.28;6.35;;;;;;;25.47;59.81;99945.07;126089;1092;22751;-62
2021/06/20 06:16:51;;;;;;;10.60;4.83;;;;;;;25.56;59.49;99944.37;126600;1092;22723;-59
2021/06/20 06:19:23;;;;;;;14.45;5.13;;;;;;;25.63;59.19;99950.00;125817;1093;27371;-59
2021/06/20 06:21:55;;;;;;;14.77;5.77;;;;;;;25.74;58.59;99945.10;125772;1093;27163;-60
2021/06/20 06:24:27;;;;;;;14.10;5.73;;;;;;;25.80;59.00;99952.07;125944;1093;22781;-59
2021/06/20 06:26:58;;;;;;;13.40;5.38;;;;;;;25.86;58.24;99943.22;125918;1093;22803;-61
2021/06/20 06:29:30;;;;;;;15.37;7.20;;;;;;;25.92;57.86;99938.73;125873;1093;22770;-59
2021/06/20 06:32:01;;;;;;;12.43;5.78;;;;;;;25.98;57.96;99947.04;125880;1093;25941;-59
2021/06/20 06:34:37;;;;;;;14.08;5.68;;;;;;;26.07;57.96;99949.20;125925;1092;22764;-60
2021/06/20 06:37:09;;;;;;;13.85;5.85;;;;;;;26.13;57.77;99944.75;125978;1093;22818;-61
2021/06/20 06:39:44;;;;;;;13.63;4.97;;;;;;;26.25;57.53;99948.58;126384;1093;22871;-61
2021/06/20 06:42:16;;;;;;;15.13;7.13;;;;;;;26.30;57.06;99938.94;125877;1093;23029;-62
2021/06/20 06:44:47;;;;;;;13.40;5.73;;;;;;;26.35;57.00;99940.78;125913;1093;22790;-62
2021/06/20 06:47:20;;;;;;;11.80;5.78;;;;;;;26.42;56.57;99934.16;125845;1093;27315;-62
2021/06/20 06:49:55;;;;;;;13.53;5.73;;;;;;;26.43;56.71;99932.81;126068;1093;23149;-60
2021/06/20 06:52:27;;;;;;;10.48;5.70;;;;;;;26.53;56.63;99929.24;126262;1093;22823;-60
2021/06/20 06:54:58;;;;;;;12.10;5.95;;;;;;;26.66;56.47;99917.34;126160;1093;22793;-59
2021/06/20 06:57:31;;;;;;;15.10;6.27;;;;;;;26.77;56.22;99914.70;125876;1093;22754;-60
2021/06/20 07:00:04;;;;;;;11.50;5.40;;;;;;;26.84;55.91;99913.80;125886;1091;22790;-59
2021/06/20 07:02:38;;;;;;;14.18;6.00;;;;;;;26.99;55.45;99910.66;125819;1093;29979;-62
2021/06/20 07:05:11;;;;;;;11.25;5.63;;;;;;;27.05;55.58;99907.48;126009;1093;23088;-60
2021/06/20 07:07:45;;;;;;;12.00;5.78;;;;;;;27.10;55.32;99909.30;125962;1093;22816;-61
2021/06/20 07:10:20;;;;;;;12.08;5.28;;;;;;;27.21;55.37;99909.44;125873;1093;22791;-59
2021/06/20 07:12:52;;;;;;;15.18;6.40;;;;;;;27.31;54.62;99906.59;125950;1093;22818;-60
2021/06/20 07:15:28;;;;;;;14.33;6.23;;;;;;;27.39;55.02;99906.45;125836;1093;22778;-60
2021/06/20 07:18:00;;;;;;;13.03;5.90;;;;;;;27.45;54.57;99884.72;125804;1093;27496;-61
2021/06/20 07:20:32;;;;;;;14.05;6.55;;;;;;;27.52;54.25;99895.25;125912;1092;24493;-60
2021/06/20 07:23:03;;;;;;;12.50;6.08;;;;;;;27.61;53.86;99891.63;125862;1093;22784;-61
2021/06/20 07:25:35;;;;;;;14.08;5.60;;;;;;;27.69;53.49;99888.58;125929;1093;22827;-62
2021/06/20 07:28:09;;;;;;;9.48;4.63;;;;;;;27.77;53.08;99884.17;125881;1093;22810;-62
2021/06/20 07:30:40;;;;;;;12.13;5.58;;;;;;;27.85;52.81;99876.14;126261;1093;24152;-61
2021/06/20 07:33:13;;;;;;;11.73;4.98;;;;;;;27.91;52.51;99876.58;126018;1093;22778;-60
2021/06/20 07:35:47;;;;;;;13.53;6.28;;;;;;;27.99;52.56;99882.94;125909;1093;22751;-60
2021/06/20 07:38:19;;;;;;;12.13;5.57;;;;;;;28.10;52.52;99880.78;126015;1093;26258;-60
2021/06/20 07:40:50;;;;;;;13.93;5.98;;;;;;;28.17;52.14;99880.59;126122;1093;22755;-60
2021/06/20 07:43:22;;;;;;;13.65;5.75;;;;;;;28.25;51.64;99881.15;125926;1093;22739;-61
2021/06/20 07:45:55;;;;;;;13.48;5.95;;;;;;;28.34;51.45;99879.59;125822;1093;22758;-62
2021/06/20 07:48:30;;;;;;;12.23;5.25;;;;;;;28.40;51.58;99871.41;125888;1093;22848;-61
2021/06/20 07:51:01;;;;;;;14.60;5.93;;;;;;;28.46;50.98;99880.43;125885;1092;22784;-59
2021/06/20 07:53:33;;;;;;;10.75;5.45;;;;;;;28.50;50.77;99883.58;125865;1093;22751;-61
2021/06/20 07:56:05;;;;;;;14.30;5.95;;;;;;;28.55;50.69;99873.89;125961;1092;22777;-62
2021/06/20 07:58:37;;;;;;;14.23;5.73;;;;;;;28.63;50.47;99860.11;126162;1093;22848;-60
2021/06/20 08:01:08;;;;;;;12.45;5.55;;;;;;;28.66;49.99;99862.49;125841;1093;23228;-61
2021/06/20 08:03:39;;;;;;;10.77;5.30;;;;;;;28.72;50.06;99851.41;125894;1093;24417;-62
2021/06/20 08:06:15;;;;;;;16.50;5.75;;;;;;;28.81;49.86;99855.58;125803;1092;22781;-61
2021/06/20 08:08:46;;;;;;;10.20;5.73;;;;;;;28.92;50.01;99854.14;125910;1092;22744;-62
2021/06/20 08:11:18;;;;;;;11.35;5.35;;;;;;;28.98;49.77;99861.05;125815;1093;27192;-62
2021/06/20 08:13:49;;;;;;;10.95;5.15;;;;;;;29.03;49.58;99864.95;125862;1092;28564;-61
2021/06/20 08:16:22;;;;;;;11.83;5.53;;;;;;;29.10;49.25;99875.45;125996;1092;22754;-61
2021/06/20 08:19:01;;;;;;;13.65;6.00;;;;;;;29.18;49.00;99873.91;125690;1092;22781;-62
2021/06/20 08:21:33;;;;;;;18.00;5.83;;;;;;;29.22;49.36;99877.05;126074;1093;24436;-62
2021/06/20 08:24:08;;;;;;;15.00;6.78;;;;;;;29.32;49.30;99877.70;126028;1092;22789;-61
2021/06/20 08:26:41;;;;;;;11.28;5.38;;;;;;;29.41;48.64;99870.36;126288;1093;22778;-70
2021/06/20 08:29:13;;;;;;;12.78;5.35;;;;;;;29.48;48.42;99878.02;125869;1093;27271;-60
2021/06/20 08:31:45;;;;;;;11.00;5.13;;;;;;;29.49;48.41;99868.77;125819;1093;22778;-61
2021/06/20 08:34:17;;;;;;;16.13;5.57;;;;;;;29.54;48.78;99856.16;125856;1092;22751;-62
2021/06/20 08:36:52;;;;;;;13.28;4.80;;;;;;;29.62;48.75;99863.78;125933;1093;22754;-61
2021/06/20 08:39:23;;;;;;;12.48;5.65;;;;;;;29.70;48.62;99864.30;125841;1093;23372;-62
2021/06/20 08:41:55;;;;;;;12.85;5.58;;;;;;;29.79;48.57;99858.48;125828;1093;22851;-61
2021/06/20 08:44:30;;;;;;;12.68;5.55;;;;;;;29.87;48.52;99849.59;125786;1091;26535;-62
2021/06/20 08:47:03;;;;;;;13.80;6.25;;;;;;;29.97;48.24;99855.98;125914;1093;25862;-62
2021/06/20 08:49:36;;;;;;;10.58;4.60;;;;;;;30.02;47.60;99851.98;125991;1093;24456;-60
2021/06/20 08:52:08;;;;;;;20.10;6.08;;;;;;;30.05;47.70;99865.12;125867;1093;26248;-61
2021/06/20 08:55:00;;;;;;;12.70;5.68;;;;;;;30.11;47.59;99859.73;126056;1093;22780;-61
2021/06/20 08:57:37;;;;;;;13.45;4.98;;;;;;;30.24;47.70;99853.35;125862;1093;22777;-61
2021/06/20 09:00:14;;;;;;;13.55;5.28;;;;;;;30.29;47.52;99849.36;125863;1093;26947;-61
2021/06/20 09:02:58;;;;;;;10.58;4.83;;;;;;;30.36;46.92;99857.00;125900;1093;22934;-61
2021/06/20 09:05:30;;;;;;;17.70;5.25;;;;;;;30.41;46.58;99858.76;126202;1092;23058;-62
2021/06/20 09:08:14;;;;;;;12.90;4.80;;;;;;;30.47;45.70;99855.48;125895;1093;22748;-62
2021/06/20 09:10:46;;;;;;;12.85;7.90;;;;;;;30.52;45.78;99857.24;125834;1093;22753;-62
2021/06/20 09:13:17;;;;;;;13.15;5.25;;;;;;;30.57;45.53;99853.97;125884;1093;22835;-64
2021/06/20 09:16:01;;;;;;;11.70;5.05;;;;;;;30.61;45.61;99859.22;127312;1092;22732;-62
2021/06/20 09:18:35;;;;;;;9.58;4.65;;;;;;;30.63;45.41;99860.09;129990;1093;22577;-61
2021/06/20 09:21:12;;;;;;;11.43;5.55;;;;;;;30.65;45.65;99854.45;130010;1092;23104;-62
2021/06/20 09:23:44;;;;;;;11.60;4.83;;;;;;;30.73;45.49;99854.92;130055;1093;22609;-61
2021/06/20 09:26:16;;;;;;;9.55;4.10;;;;;;;30.84;45.05;99848.39;130000;1092;22654;-61
2021/06/20 09:28:51;;;;;;;9.33;4.70;;;;;;;30.91;44.27;99843.77;130068;1093;22544;-61
2021/06/20 09:31:23;;;;;;;13.23;4.65;;;;;;;30.95;44.56;99838.98;127632;1092;22748;-61
2021/06/20 09:34:01;;;;;;;11.38;5.08;;;;;;;31.08;44.31;99838.29;130044;1092;23487;-62
2021/06/20 09:36:33;;;;;;;12.03;4.00;;;;;;;31.20;44.15;99843.27;127565;1093;23054;-61
2021/06/20 09:39:18;;;;;;;8.63;3.90;;;;;;;31.29;43.85;99843.08;130014;1093;22572;-62
2021/06/20 09:42:00;;;;;;;9.15;3.25;;;;;;;31.41;43.65;99832.25;129894;1093;23075;-61
2021/06/20 09:44:43;;;;;;;9.03;3.60;;;;;;;31.50;44.09;99831.33;130036;1092;22555;-62
2021/06/20 09:47:16;;;;;;;9.88;3.05;;;;;;;31.62;42.97;99831.25;130010;1092;22492;-62
2021/06/20 09:49:54;;;;;;;8.90;3.98;;;;;;;31.69;42.60;99821.55;130025;1092;22537;-63
2021/06/20 09:52:30;;;;;;;11.03;3.75;;;;;;;31.70;42.33;99832.45;130028;1091;23464;-62
2021/06/20 09:55:04;;;;;;;9.58;3.35;;;;;;;31.73;42.36;99836.20;130052;1093;22505;-62
2021/06/20 09:57:43;;;;;;;11.20;3.53;;;;;;;31.76;42.15;99832.05;130060;1091;22552;-62
2021/06/20 10:00:17;;;;;;;11.45;3.33;;;;;;;31.81;41.93;99827.98;130001;1093;22625;-61
2021/06/20 10:02:49;;;;;;;9.93;3.78;;;;;;;31.89;42.14;99825.53;130062;1092;22633;-63
2021/06/20 10:05:21;;;;;;;11.55;3.73;;;;;;;31.97;41.80;99825.27;130014;1092;22562;-62
2021/06/20 10:07:52;;;;;;;9.55;4.10;;;;;;;32.04;41.66;99832.84;128500;1092;22755;-68
2021/06/20 10:10:27;;;;;;;9.20;3.90;;;;;;;32.11;42.05;99831.80;125845;1093;22807;-66
2021/06/20 10:12:58;;;;;;;14.00;3.85;;;;;;;32.16;41.38;99837.13;126099;1093;27332;-69
2021/06/20 10:15:32;;;;;;;9.13;4.15;;;;;;;32.20;41.61;99825.80;125910;1093;22820;-66
2021/06/20 10:18:10;;;;;;;7.75;3.45;;;;;;;32.27;41.38;99823.98;125933;1093;22848;-67
2021/06/20 10:20:43;;;;;;;10.10;3.68;;;;;;;32.28;40.95;99826.22;126089;1093;24068;-68
2021/06/20 10:23:24;;;;;;;10.98;3.85;;;;;;;32.29;41.01;99821.20;125905;1093;22905;-66
2021/06/20 10:26:07;;;;;;;9.30;3.75;;;;;;;32.38;40.70;99811.57;125934;1093;22703;-67
2021/06/20 10:28:39;;;;;;;8.87;3.70;;;;;;;32.43;40.49;99805.35;126616;1093;22754;-62
2021/06/20 10:31:12;;;;;;;9.30;3.67;;;;;;;32.45;40.50;99808.34;125745;1093;25826;-62
2021/06/20 10:33:43;;;;;;;8.20;3.50;;;;;;;32.46;40.08;99801.22;125967;1093;24386;-61
2021/06/20 10:36:15;;;;;;;7.18;3.23;;;;;;;32.49;39.70;99811.47;125948;1093;25938;-61
2021/06/20 10:38:46;;;;;;;9.63;3.83;;;;;;;32.49;40.03;99804.94;125857;1093;22810;-63
2021/06/20 10:41:25;;;;;;;8.73;2.40;;;;;;;32.53;39.64;99796.47;125847;1092;26335;-62
2021/06/20 10:44:00;;;;;;;7.20;2.40;;;;;;;32.57;38.12;99803.21;125954;1092;22751;-61
2021/06/20 10:46:33;;;;;;;9.78;3.00;;;;;;;32.54;38.68;99813.19;126195;1092;22762;-62
2021/06/20 10:49:16;;;;;;;9.10;3.38;;;;;;;32.52;38.22;99812.33;126200;1093;22755;-60
2021/06/20 10:51:48;;;;;;;8.43;2.88;;;;;;;32.52;38.01;99809.44;125889;1093;24413;-60
2021/06/20 10:54:30;;;;;;;7.85;3.35;;;;;;;32.61;36.66;99796.91;125978;1093;24439;-61
2021/06/20 10:57:04;;;;;;;8.13;2.20;;;;;;;32.62;36.97;99796.26;126103;1093;26268;-60
2021/06/20 10:59:35;;;;;;;5.73;2.10;;;;;;;32.65;36.85;99800.00;125957;1093;22980;-60
2021/06/20 11:02:24;;;;;;;7.70;2.43;;;;;;;32.70;36.32;99801.69;125943;1092;24480;-60
2021/06/20 11:04:59;;;;;;;5.75;2.15;;;;;;;32.74;36.29;99795.35;125847;1093;22892;-60
2021/06/20 11:07:39;;;;;;;6.65;2.60;;;;;;;32.82;35.91;99792.89;125738;1092;22916;-60
2021/06/20 11:10:25;;;;;;;5.33;2.13;;;;;;;32.86;35.57;99790.20;125833;1092;22921;-62
2021/06/20 11:12:59;;;;;;;5.10;2.07;;;;;;;32.89;35.11;99788.89;126187;1093;22705;-60
2021/06/20 11:15:32;;;;;;;7.35;2.13;;;;;;;32.92;35.04;99784.72;126006;1093;22760;-62
2021/06/20 11:18:11;;;;;;;5.88;2.33;;;;;;;32.91;35.33;99775.29;130161;1091;22575;-63
2021/06/20 11:20:52;;;;;;;5.35;2.30;;;;;;;32.90;35.19;99775.95;130150;1093;22601;-63
2021/06/20 11:41:56;;;;;;;15.03;2.63;;;;;;;33.06;33.94;99773.87;125810;1093;22883;-60
2021/06/20 11:44:27;;;;;;;5.38;2.20;;;;;;;33.05;33.88;99764.44;126178;1093;23605;-62
2021/06/20 11:58:07;;;;;;;6.55;2.33;;;;;;;33.31;34.61;99750.50;125887;1093;23030;-60
2021/06/20 12:00:44;;;;;;;5.98;2.70;;;;;;;33.39;34.14;99753.77;126057;1093;22828;-60
2021/06/20 12:03:50;;;;;;;8.00;2.30;;;;;;;33.37;33.52;99739.20;126530;1092;26517;-60
2021/06/20 12:10:44;;;;;;;6.23;2.00;;;;;;;33.35;33.50;99736.98;125575;1096;22778;-60
2021/06/20 12:14:10;;;;;;;6.80;2.45;;;;;;;33.30;33.19;99743.20;125432;1095;24475;-60
2021/06/20 12:17:01;;;;;;;6.60;3.25;;;;;;;33.18;33.53;99748.42;124990;1096;25921;-60
2021/06/20 12:20:20;;;;;;;10.23;4.20;;;;;;;33.16;33.32;99743.29;125186;1096;22882;-59
2021/06/20 12:23:44;;;;;;;8.45;2.65;;;;;;;33.15;33.06;99730.21;125181;1096;22786;-59